Time;durP1;ratioP1;P1;durP2;ratioP2;P2;SDS_P1;SDS_P2;PMS_P1;PMS_P2;Temp;Humidity;BMP_temperature;BMP_pressure;BME280_temperature;BME280_humidity;BME280_pressure;Samples;Min_cycle;Max_cycle;Signal;HPM_P1;HPM_P2
2023/04/01 00:01:54;;;;;;;7.18;1.90;;;;;;;11.26;100.00;99059.53;5255817;28;20036;-71
2023/04/01 00:04:25;;;;;;;5.78;1.63;;;;;;;11.18;100.00;99058.59;5255581;28;20033;-70
2023/04/01 00:06:57;;;;;;;4.82;1.50;;;;;;;11.20;100.00;99072.31;5259997;28;20056;-71
2023/04/01 00:09:28;;;;;;;4.10;1.25;;;;;;;11.25;100.00;99063.94;5255879;28;20090;-71
2023/04/01 00:11:59;;;;;;;5.63;1.98;;;;;;;11.18;100.00;99069.09;5260417;28;20078;-71
2023/04/01 00:14:31;;;;;;;3.05;1.77;;;;;;;11.18;100.00;99063.84;5265300;28;20032;-71
2023/04/01 00:17:02;;;;;;;6.07;1.73;;;;;;;11.20;100.00;99063.66;5260417;28;20033;-70
2023/04/01 00:19:34;;;;;;;5.47;1.80;;;;;;;11.13;100.00;99063.53;5259305;28;20036;-71
2023/04/01 00:22:06;;;;;;;5.93;1.95;;;;;;;11.23;100.00;99063.28;5257236;28;20173;-70
2023/04/01 00:24:38;;;;;;;4.90;1.50;;;;;;;11.22;100.00;99073.97;5265285;28;20025;-71
2023/04/01 00:27:10;;;;;;;4.50;1.52;;;;;;;11.26;100.00;99060.31;5261819;28;20111;-71
2023/04/01 00:29:42;;;;;;;3.27;1.60;;;;;;;11.31;100.00;99068.47;5258066;28;20033;-71
2023/04/01 00:32:14;;;;;;;7.47;1.92;;;;;;;11.27;100.00;99069.00;5263306;28;20075;-71
2023/04/01 00:34:45;;;;;;;4.40;1.73;;;;;;;11.29;100.00;99077.50;5255675;28;20139;-71
2023/04/01 00:37:17;;;;;;;4.72;1.50;;;;;;;11.20;100.00;99068.88;5259317;28;20446;-71
2023/04/01 00:39:48;;;;;;;4.07;1.40;;;;;;;11.27;100.00;99088.16;5261538;28;21414;-71
2023/04/01 00:42:20;;;;;;;3.63;1.48;;;;;;;11.20;100.00;99082.00;5258939;28;20028;-71
2023/04/01 00:44:53;;;;;;;3.60;1.77;;;;;;;11.27;100.00;99082.91;5239447;28;20036;-71
2023/04/01 00:47:27;;;;;;;6.55;1.98;;;;;;;11.24;100.00;99083.28;5260586;28;20529;-71
2023/04/01 00:49:59;;;;;;;3.42;1.48;;;;;;;11.22;100.00;99087.06;5258999;28;20457;-71
2023/04/01 00:52:31;;;;;;;5.23;2.00;;;;;;;11.28;100.00;99097.66;5259152;28;20075;-71
2023/04/01 00:55:06;;;;;;;2.83;1.58;;;;;;;11.29;100.00;99086.19;5264319;28;20786;-71
2023/04/01 00:57:39;;;;;;;2.80;1.30;;;;;;;11.24;100.00;99096.38;5259510;28;20078;-71
2023/04/01 01:00:14;;;;;;;2.90;1.50;;;;;;;11.30;100.00;99094.88;5260469;28;20441;-71
2023/04/01 01:02:47;;;;;;;4.07;1.40;;;;;;;11.18;100.00;99103.16;5261433;28;20024;-71
2023/04/01 01:05:29;;;;;;;4.28;1.60;;;;;;;11.33;100.00;99095.31;5258808;28;20028;-71
2023/04/01 01:08:12;;;;;;;3.28;1.80;;;;;;;11.25;100.00;99090.16;5257323;28;20024;-71
2023/04/01 01:10:49;;;;;;;2.43;1.80;;;;;;;11.32;100.00;99098.09;5256884;28;20029;-71
2023/04/01 01:13:52;;;;;;;4.35;2.00;;;;;;;11.35;100.00;99093.31;5256211;28;20087;-71
2023/04/01 01:16:29;;;;;;;5.22;1.92;;;;;;;11.37;100.00;99101.84;5258910;28;20140;-71
2023/04/01 01:19:22;;;;;;;2.42;1.70;;;;;;;11.31;100.00;99112.22;5243711;28;20025;-72
2023/04/01 01:22:36;;;;;;;4.37;2.00;;;;;;;11.51;100.00;99107.28;5258787;28;20390;-71
2023/04/01 01:25:10;;;;;;;3.22;1.90;;;;;;;11.32;100.00;99106.78;5257922;28;20390;-71
2023/04/01 01:27:55;;;;;;;2.72;1.90;;;;;;;11.39;100.00;99110.34;5264060;28;20047;-71
2023/04/01 01:30:42;;;;;;;4.20;2.45;;;;;;;11.40;100.00;99103.28;5264290;28;20016;-71
2023/04/01 01:33:45;;;;;;;4.97;2.40;;;;;;;11.47;100.00;99093.72;5255353;28;20040;-71
2023/04/01 01:36:20;;;;;;;3.35;2.70;;;;;;;11.34;100.00;99111.88;5257958;28;20058;-71
2023/04/01 01:38:53;;;;;;;3.97;3.42;;;;;;;11.23;100.00;99118.34;5259479;28;20028;-72
2023/04/01 01:41:27;;;;;;;3.80;3.50;;;;;;;11.34;100.00;99122.34;5260661;28;20475;-71
2023/04/01 01:44:02;;;;;;;5.60;5.10;;;;;;;11.31;100.00;99123.50;5264162;28;20033;-71
2023/04/01 01:46:35;;;;;;;5.57;5.07;;;;;;;11.22;100.00;99124.59;5257559;28;20498;-72
2023/04/01 01:49:10;;;;;;;5.57;5.07;;;;;;;11.24;100.00;99130.44;5260965;28;20398;-72
2023/04/01 01:51:42;;;;;;;5.75;5.25;;;;;;;11.17;100.00;99119.88;5257480;28;20036;-72
2023/04/01 01:54:16;;;;;;;5.15;4.65;;;;;;;11.26;100.00;99135.53;5262424;28;20037;-72
2023/04/01 01:56:52;;;;;;;5.43;4.93;;;;;;;11.19;100.00;99127.56;5260885;28;20405;-72
2023/04/01 01:59:24;;;;;;;5.72;5.00;;;;;;;11.23;100.00;99130.63;5237251;28;20032;-73
2023/04/01 02:01:56;;;;;;;6.80;4.88;;;;;;;11.12;100.00;99137.91;5256255;28;20071;-72
2023/04/01 02:04:28;;;;;;;4.80;4.30;;;;;;;11.20;100.00;99139.66;5259303;28;20032;-72
2023/04/01 02:07:04;;;;;;;5.72;5.20;;;;;;;11.27;100.00;99137.16;5256593;28;20021;-72
2023/04/01 02:09:35;;;;;;;5.97;5.18;;;;;;;11.12;100.00;99127.44;5253121;28;20093;-72
2023/04/01 02:12:13;;;;;;;5.88;5.07;;;;;;;11.33;100.00;99149.56;5260924;28;20025;-72
2023/04/01 02:14:53;;;;;;;6.15;5.55;;;;;;;11.22;100.00;99150.81;5256150;28;20486;-72
2023/04/01 02:17:27;;;;;;;7.63;6.82;;;;;;;11.14;100.00;99161.34;5256703;28;20029;-72
2023/04/01 02:20:05;;;;;;;7.55;6.95;;;;;;;11.16;100.00;99151.50;5258804;28;20032;-72
2023/04/01 02:22:44;;;;;;;7.55;6.47;;;;;;;11.15;100.00;99147.25;5256451;28;20044;-72
2023/04/01 02:25:20;;;;;;;8.18;7.38;;;;;;;11.20;100.00;99155.38;5255758;28;20040;-72
2023/04/01 02:27:53;;;;;;;11.32;7.63;;;;;;;11.13;100.00;99144.78;5260605;28;20112;-72
2023/04/01 02:30:27;;;;;;;9.50;7.80;;;;;;;11.13;100.00;99151.84;5257815;28;20028;-72
2023/04/01 02:32:59;;;;;;;8.50;7.50;;;;;;;11.18;100.00;99144.28;5257435;28;20119;-72
2023/04/01 02:35:33;;;;;;;9.60;8.35;;;;;;;11.19;100.00;99154.56;5256393;28;20138;-72
2023/04/01 02:38:06;;;;;;;9.63;8.60;;;;;;;11.14;100.00;99150.88;5257923;28;20032;-72
2023/04/01 02:40:49;;;;;;;9.07;8.18;;;;;;;11.16;100.00;99154.91;5261773;28;20086;-72
2023/04/01 02:43:21;;;;;;;10.55;9.30;;;;;;;11.10;100.00;99165.28;5258106;28;20017;-71
2023/04/01 02:45:53;;;;;;;11.43;10.32;;;;;;;11.07;100.00;99149.94;5256923;28;20398;-72
2023/04/01 02:48:24;;;;;;;11.65;10.50;;;;;;;11.06;100.00;99154.38;5259940;28;20052;-71
2023/04/01 02:50:55;;;;;;;13.35;11.20;;;;;;;11.10;100.00;99165.28;5258246;28;20359;-72
2023/04/01 02:53:27;;;;;;;12.88;11.68;;;;;;;11.07;100.00;99157.78;5249379;28;20039;-72
2023/04/01 02:55:58;;;;;;;13.80;10.95;;;;;;;11.06;100.00;99161.38;5255673;28;20028;-72
2023/04/01 02:58:29;;;;;;;12.70;10.35;;;;;;;11.03;100.00;99165.19;5260029;28;20858;-72
2023/04/01 03:01:01;;;;;;;11.70;10.50;;;;;;;11.05;100.00;99167.63;5255743;28;20059;-72
2023/04/01 03:03:32;;;;;;;11.10;9.90;;;;;;;11.02;100.00;99162.72;5261831;28;20026;-72
2023/04/01 03:06:09;;;;;;;11.18;9.40;;;;;;;11.12;100.00;99173.81;5258973;28;20028;-72
2023/04/01 03:08:41;;;;;;;11.98;9.63;;;;;;;11.02;100.00;99165.34;5255553;28;20032;-73
2023/04/01 03:11:12;;;;;;;11.32;10.10;;;;;;;11.03;100.00;99185.34;5237043;28;20678;-72
2023/04/01 03:13:44;;;;;;;11.55;10.45;;;;;;;11.03;100.00;99177.47;5261655;28;20032;-72
2023/04/01 03:16:16;;;;;;;12.35;9.98;;;;;;;11.02;100.00;99181.88;5258209;28;20393;-72
2023/04/01 03:18:49;;;;;;;12.40;9.57;;;;;;;11.07;100.00;99186.63;5254103;28;20029;-72
2023/04/01 03:21:22;;;;;;;;;;;;;;;11.62;100.00;99186.34;5259756;28;20020;-72
2023/04/01 03:23:53;;;;;;;9.70;8.70;;;;;;;11.07;100.00;99176.13;5262382;28;19909;-72
2023/04/01 03:26:26;;;;;;;11.02;9.80;;;;;;;11.05;100.00;99192.03;5256675;28;20101;-72
2023/04/01 03:28:57;;;;;;;11.30;9.20;;;;;;;11.00;100.00;99198.78;5255834;28;20397;-72
2023/04/01 03:31:29;;;;;;;10.38;9.27;;;;;;;10.92;100.00;99194.41;5257162;28;20043;-72
2023/04/01 03:34:00;;;;;;;10.07;9.23;;;;;;;10.92;100.00;99191.78;5260269;28;20398;-72
2023/04/01 03:36:31;;;;;;;10.23;9.23;;;;;;;11.03;100.00;99201.06;5259227;28;20056;-72
2023/04/01 03:39:03;;;;;;;10.48;8.75;;;;;;;11.05;100.00;99201.69;5253951;28;20032;-72
2023/04/01 03:41:37;;;;;;;9.52;8.63;;;;;;;10.98;100.00;99192.88;5259214;28;20037;-72
2023/04/01 03:44:08;;;;;;;9.98;9.02;;;;;;;11.03;100.00;99201.06;5257717;28;20028;-72
2023/04/01 03:46:40;;;;;;;9.63;8.20;;;;;;;11.07;100.00;99204.97;5254961;28;20455;-72
2023/04/01 03:49:11;;;;;;;9.45;8.55;;;;;;;11.09;100.00;99206.41;5263090;28;20557;-72
2023/04/01 03:51:43;;;;;;;9.25;8.45;;;;;;;11.01;100.00;99205.66;5235094;28;20060;-73
2023/04/01 03:54:15;;;;;;;8.80;7.72;;;;;;;10.96;100.00;99211.41;5250686;28;20029;-73
2023/04/01 03:56:46;;;;;;;8.15;7.38;;;;;;;11.00;100.00;99202.22;5259543;28;20398;-72
2023/04/01 03:59:18;;;;;;;7.13;6.45;;;;;;;11.07;100.00;99208.41;5255975;28;20500;-72
2023/04/01 04:01:49;;;;;;;7.60;6.85;;;;;;;11.01;100.00;99208.28;5246789;28;21150;-72
2023/04/01 04:04:20;;;;;;;7.10;6.40;;;;;;;11.03;100.00;99212.34;5253349;28;20028;-72
2023/04/01 04:06:51;;;;;;;7.15;6.53;;;;;;;11.02;100.00;99215.94;5250358;28;20123;-72
2023/04/01 04:09:23;;;;;;;7.13;6.43;;;;;;;10.94;100.00;99214.19;5229708;28;20037;-72
2023/04/01 04:11:54;;;;;;;7.65;6.28;;;;;;;10.94;100.00;99216.00;5251607;28;20065;-72
2023/04/01 04:14:26;;;;;;;7.75;6.35;;;;;;;11.01;100.00;99229.22;5255911;28;20029;-72
2023/04/01 04:16:58;;;;;;;7.47;6.78;;;;;;;10.98;100.00;99238.25;5251044;28;20033;-72
2023/04/01 04:19:33;;;;;;;6.22;5.32;;;;;;;11.07;100.00;99234.59;5249319;28;20051;-72
2023/04/01 04:22:04;;;;;;;5.85;5.25;;;;;;;11.01;100.00;99224.00;5249261;28;20112;-72
2023/04/01 04:24:36;;;;;;;5.68;5.18;;;;;;;10.87;100.00;99217.66;5235193;28;20043;-72
2023/04/01 04:27:07;;;;;;;5.97;5.47;;;;;;;10.93;100.00;99243.19;5249280;28;20029;-72
2023/04/01 04:29:39;;;;;;;5.30;4.90;;;;;;;10.79;100.00;99244.72;5252308;28;20063;-72
2023/04/01 04:32:10;;;;;;;4.88;4.43;;;;;;;10.89;100.00;99245.34;5251166;28;20028;-72
2023/04/01 04:34:41;;;;;;;4.88;4.40;;;;;;;10.95;100.00;99247.28;5255896;28;20762;-71
2023/04/01 04:37:13;;;;;;;5.30;4.80;;;;;;;10.84;100.00;99241.63;5255219;28;20048;-72
2023/04/01 04:39:44;;;;;;;4.78;4.28;;;;;;;10.77;100.00;99246.72;5258399;28;20033;-72
2023/04/01 04:42:15;;;;;;;4.22;3.83;;;;;;;10.82;100.00;99246.19;5253090;28;20028;-72
2023/04/01 04:44:47;;;;;;;4.47;3.72;;;;;;;10.80;100.00;99250.81;5232570;28;20033;-72
2023/04/01 04:47:18;;;;;;;3.78;3.38;;;;;;;10.79;100.00;99257.00;5252112;28;20037;-71
2023/04/01 04:49:49;;;;;;;4.55;3.47;;;;;;;10.84;100.00;99255.53;5250584;28;20119;-72
2023/04/01 04:52:20;;;;;;;3.50;3.20;;;;;;;10.79;100.00;99257.81;5261536;28;20021;-72
2023/04/01 04:54:52;;;;;;;3.53;3.22;;;;;;;10.76;100.00;99262.56;5262988;28;20032;-71
2023/04/01 04:57:23;;;;;;;4.43;3.40;;;;;;;10.70;100.00;99278.00;5254303;28;20032;-72
2023/04/01 04:59:54;;;;;;;3.78;3.38;;;;;;;10.69;100.00;99265.91;5259559;28;20028;-72
2023/04/01 05:02:26;;;;;;;3.78;3.45;;;;;;;10.74;100.00;99270.63;5256597;28;20025;-72
2023/04/01 05:04:57;;;;;;;3.95;3.30;;;;;;;10.71;100.00;99278.81;5236609;28;20029;-72
2023/04/01 05:07:28;;;;;;;4.88;3.42;;;;;;;10.66;100.00;99281.94;5253425;28;20021;-71
2023/04/01 05:10:00;;;;;;;3.55;3.15;;;;;;;10.59;100.00;99277.53;5256785;28;20024;-71
2023/04/01 05:12:33;;;;;;;4.13;3.00;;;;;;;10.56;100.00;99280.50;5258733;28;20477;-72
2023/04/01 05:15:05;;;;;;;3.20;2.90;;;;;;;10.55;100.00;99287.53;5254974;28;20032;-72
2023/04/01 05:17:37;;;;;;;2.63;2.43;;;;;;;10.65;100.00;99285.56;5258405;28;20115;-72
2023/04/01 05:20:08;;;;;;;2.47;2.28;;;;;;;10.57;100.00;99298.69;5254203;28;20035;-72
2023/04/01 05:22:40;;;;;;;3.85;2.78;;;;;;;10.61;100.00;99299.16;5264410;28;20017;-72
2023/04/01 05:25:11;;;;;;;3.00;2.70;;;;;;;10.57;100.00;99296.06;5255981;28;20079;-71
2023/04/01 05:27:42;;;;;;;2.90;2.60;;;;;;;10.62;100.00;99308.66;5260985;28;20056;-72
2023/04/01 05:30:14;;;;;;;2.80;2.53;;;;;;;10.61;100.00;99307.84;5257129;28;20786;-72
2023/04/01 05:32:45;;;;;;;2.78;2.40;;;;;;;10.64;100.00;99317.94;5256871;28;20531;-72
2023/04/01 05:35:16;;;;;;;3.20;2.72;;;;;;;10.66;100.00;99316.00;5258722;28;20095;-72
2023/04/01 05:37:48;;;;;;;3.20;2.90;;;;;;;10.69;100.00;99322.69;5238205;28;20032;-72
2023/04/01 05:40:20;;;;;;;3.50;3.20;;;;;;;10.62;100.00;99325.16;5254970;28;20455;-72
2023/04/01 05:42:51;;;;;;;3.10;2.80;;;;;;;10.69;100.00;99333.19;5256906;28;20116;-71
2023/04/01 05:45:22;;;;;;;3.83;3.10;;;;;;;10.63;100.00;99329.41;5260215;28;20111;-72
2023/04/01 05:47:54;;;;;;;3.67;3.38;;;;;;;10.71;100.00;99336.44;5250397;28;20057;-72
2023/04/01 05:50:25;;;;;;;4.28;3.75;;;;;;;10.72;100.00;99343.34;5254705;28;20032;-72
2023/04/01 05:52:56;;;;;;;3.92;3.47;;;;;;;10.66;100.00;99347.41;5258456;28;20032;-71
2023/04/01 05:55:28;;;;;;;4.40;3.95;;;;;;;10.68;100.00;99350.69;5253379;28;20466;-72
2023/04/01 05:57:59;;;;;;;4.65;4.13;;;;;;;10.71;100.00;99355.59;5252861;28;20032;-72
2023/04/01 06:00:30;;;;;;;4.40;4.00;;;;;;;10.72;100.00;99356.44;5233687;28;21031;-72
2023/04/01 06:03:02;;;;;;;5.30;4.80;;;;;;;10.75;100.00;99360.50;5247114;28;20024;-72
2023/04/01 06:05:43;;;;;;;5.13;4.63;;;;;;;10.83;100.00;99363.91;5256565;28;20028;-72
2023/04/01 06:08:17;;;;;;;5.00;4.32;;;;;;;10.77;100.00;99367.22;5249284;28;20289;-72
2023/04/01 06:11:10;;;;;;;5.40;4.85;;;;;;;10.93;100.00;99379.44;5263815;28;21305;-71
2023/04/01 06:13:47;;;;;;;5.57;5.07;;;;;;;10.86;100.00;99381.91;5253188;28;20036;-72
2023/04/01 06:16:27;;;;;;;5.22;4.72;;;;;;;10.80;100.00;99394.88;5253664;28;20036;-70
2023/04/01 06:19:03;;;;;;;5.13;4.55;;;;;;;10.76;100.00;99389.16;5249740;28;20033;-71
2023/04/01 06:21:53;;;;;;;4.97;4.47;;;;;;;11.00;100.00;99385.66;5230463;28;20040;-71
2023/04/01 06:24:43;;;;;;;5.65;5.15;;;;;;;11.12;100.00;99393.97;5251053;28;20095;-70
2023/04/01 06:27:32;;;;;;;5.00;4.50;;;;;;;10.86;100.00;99399.44;5251150;28;20028;-71
2023/04/01 06:30:22;;;;;;;6.50;5.30;;;;;;;11.15;100.00;99410.16;5256239;28;20486;-70
2023/04/01 06:33:18;;;;;;;5.82;5.20;;;;;;;10.98;100.00;99405.13;5251651;28;20037;-71
2023/04/01 06:36:15;;;;;;;6.20;5.30;;;;;;;11.09;100.00;99410.03;5258516;28;20058;-71
2023/04/01 06:39:04;;;;;;;7.72;5.82;;;;;;;10.93;100.00;99414.31;5250980;28;20032;-71
2023/04/01 06:42:12;;;;;;;6.45;5.85;;;;;;;11.02;100.00;99409.06;5258451;28;20060;-71
2023/04/01 06:45:15;;;;;;;7.88;7.05;;;;;;;11.06;100.00;99421.69;5250530;28;20094;-71
2023/04/01 06:48:14;;;;;;;8.02;7.25;;;;;;;11.07;100.00;99427.72;5256354;28;20056;-71
2023/04/01 06:50:56;;;;;;;7.78;6.97;;;;;;;11.00;100.00;99430.19;5248100;28;20025;-72
2023/04/01 06:54:10;;;;;;;8.90;7.13;;;;;;;11.17;100.00;99430.97;5257821;28;20036;-71
2023/04/01 06:56:46;;;;;;;8.95;8.15;;;;;;;10.98;100.00;99437.41;5246517;28;20057;-72
2023/04/01 06:59:20;;;;;;;10.65;8.82;;;;;;;11.03;100.00;99442.16;5254626;28;20392;-71
2023/04/01 07:01:59;;;;;;;10.43;9.52;;;;;;;11.13;100.00;99445.38;5252914;28;20037;-71
2023/04/01 07:04:38;;;;;;;10.85;9.75;;;;;;;11.23;100.00;99450.47;5256609;28;20016;-71
2023/04/01 07:07:20;;;;;;;10.68;9.63;;;;;;;11.28;100.00;99454.19;5251268;28;20028;-71
2023/04/01 07:09:58;;;;;;;11.18;10.13;;;;;;;11.32;100.00;99457.31;5254522;28;20040;-72
2023/04/01 07:12:36;;;;;;;10.98;9.88;;;;;;;11.29;100.00;99457.63;5258429;28;20028;-71
2023/04/01 07:15:24;;;;;;;12.60;11.20;;;;;;;11.49;100.00;99455.44;5256450;28;20033;-71
2023/04/01 07:18:02;;;;;;;12.65;11.45;;;;;;;11.38;100.00;99467.94;5255499;28;20055;-71
2023/04/01 07:20:36;;;;;;;13.65;12.25;;;;;;;11.41;100.00;99466.78;5250925;28;20028;-71
2023/04/01 07:23:26;;;;;;;13.68;12.35;;;;;;;11.49;100.00;99473.81;5249927;28;20107;-72
2023/04/01 07:26:10;;;;;;;14.82;13.07;;;;;;;11.47;100.00;99478.41;5250032;28;20060;-71
2023/04/01 07:28:42;;;;;;;14.45;13.02;;;;;;;11.42;100.00;99474.47;5254693;28;20024;-71
2023/04/01 07:31:32;;;;;;;14.25;12.85;;;;;;;11.61;100.00;99481.13;5251716;28;20078;-71
2023/04/01 07:34:22;;;;;;;14.00;12.52;;;;;;;11.70;100.00;99487.16;5258831;28;20028;-71
2023/04/01 07:37:05;;;;;;;15.65;13.23;;;;;;;11.53;100.00;99489.03;5255414;28;20076;-72
2023/04/01 07:40:29;;;;;;;14.82;12.80;;;;;;;11.78;100.00;99496.78;5255586;28;20103;-71
2023/04/01 07:43:30;;;;;;;14.95;12.82;;;;;;;11.82;100.00;99498.09;5250383;28;20051;-71
2023/04/01 07:48:58;;;;;;;14.82;13.23;;;;;;;11.67;100.00;99509.31;5261064;28;20045;-72
2023/04/01 07:51:44;;;;;;;16.63;13.15;;;;;;;11.67;100.00;99511.94;5260006;28;20059;-72
2023/04/01 07:54:37;;;;;;;15.18;13.15;;;;;;;11.61;100.00;99523.09;5261542;28;20063;-72
2023/04/01 07:57:24;;;;;;;15.40;13.30;;;;;;;11.57;100.00;99528.84;5271076;28;20028;-72
2023/04/01 08:00:17;;;;;;;16.50;14.40;;;;;;;11.74;100.00;99526.97;5280802;28;20059;-72
2023/04/01 08:03:10;;;;;;;17.48;13.57;;;;;;;11.60;100.00;99534.59;5285442;28;20469;-72
2023/04/01 08:05:55;;;;;;;14.57;13.07;;;;;;;11.67;100.00;99535.56;5280330;28;20339;-72
2023/04/01 08:08:38;;;;;;;20.23;13.90;;;;;;;11.65;100.00;99534.88;5279908;28;20039;-72
2023/04/01 08:11:16;;;;;;;;;;;;;;;12.21;100.00;99532.22;5281803;28;20527;-72
2023/04/01 08:14:11;;;;;;;15.82;12.05;;;;;;;11.91;100.00;99545.16;5283025;28;20109;-72
2023/04/01 08:17:16;;;;;;;15.35;12.60;;;;;;;11.96;100.00;99544.66;5285363;28;20042;-72
2023/04/01 08:20:23;;;;;;;17.63;13.20;;;;;;;12.20;100.00;99548.13;5281274;28;20028;-72
2023/04/01 08:23:13;;;;;;;17.13;13.05;;;;;;;12.15;100.00;99551.28;5279782;28;20463;-71
2023/04/01 08:25:51;;;;;;;17.40;14.95;;;;;;;12.18;100.00;99559.63;5283236;28;20032;-72
2023/04/01 08:28:44;;;;;;;18.80;15.32;;;;;;;12.24;100.00;99565.22;5284098;28;20102;-72
2023/04/01 08:31:48;;;;;;;17.77;13.85;;;;;;;12.12;100.00;99560.34;5284145;28;20172;-72
2023/04/01 08:34:23;;;;;;;19.30;12.98;;;;;;;12.13;100.00;99574.28;5282897;28;20863;-71
2023/04/01 08:37:02;;;;;;;17.27;14.00;;;;;;;12.11;100.00;99571.81;5284370;28;20369;-72
2023/04/01 08:39:51;;;;;;;18.13;13.98;;;;;;;12.17;100.00;99573.75;5302654;28;20086;-72
2023/04/01 08:42:22;;;;;;;17.10;12.88;;;;;;;11.97;100.00;99576.94;5287459;28;20027;-72
2023/04/01 08:45:22;;;;;;;15.97;13.00;;;;;;;12.22;100.00;99588.19;5281251;28;20560;-72
2023/04/01 08:47:56;;;;;;;14.98;13.23;;;;;;;12.12;100.00;99585.75;5280742;28;20698;-72
2023/04/01 08:50:44;;;;;;;13.95;12.45;;;;;;;12.13;100.00;99588.22;5272330;28;20523;-72
2023/04/01 08:53:38;;;;;;;14.15;11.93;;;;;;;12.34;100.00;99597.31;5280488;28;20024;-72
2023/04/01 08:56:17;;;;;;;13.73;11.05;;;;;;;12.11;100.00;99586.75;5282673;28;20036;-72
2023/04/01 08:58:48;;;;;;;16.05;12.73;;;;;;;12.14;100.00;99605.59;5285214;28;20043;-71
2023/04/01 09:01:34;;;;;;;13.30;11.33;;;;;;;12.32;100.00;99602.75;5284849;28;20389;-72
2023/04/01 09:04:32;;;;;;;14.98;11.70;;;;;;;12.55;100.00;99617.72;5282638;28;20860;-72
2023/04/01 09:07:25;;;;;;;12.35;10.75;;;;;;;12.36;100.00;99613.72;5284771;28;20142;-72
2023/04/01 09:10:14;;;;;;;11.88;10.27;;;;;;;12.47;100.00;99617.78;5276584;28;20397;-72
2023/04/01 09:13:20;;;;;;;10.70;8.85;;;;;;;12.61;100.00;99625.75;5283078;28;20064;-72
2023/04/01 09:16:23;;;;;;;10.40;8.93;;;;;;;12.66;100.00;99633.09;5276476;28;20102;-72
2023/04/01 09:19:20;;;;;;;12.20;9.23;;;;;;;12.53;100.00;99638.09;5282359;28;20107;-72
2023/04/01 09:22:06;;;;;;;10.45;9.25;;;;;;;12.49;100.00;99645.50;5286368;28;20452;-72
2023/04/01 09:24:52;;;;;;;10.05;8.80;;;;;;;12.51;100.00;99637.47;5285354;28;20056;-71
2023/04/01 09:27:31;;;;;;;10.63;8.23;;;;;;;12.32;100.00;99647.38;5282683;28;20028;-72
2023/04/01 09:30:33;;;;;;;9.77;8.13;;;;;;;12.52;100.00;99646.97;5279524;28;20128;-72
2023/04/01 09:33:57;;;;;;;9.75;8.15;;;;;;;12.61;100.00;99643.28;5276004;28;20040;-72
2023/04/01 09:36:44;;;;;;;9.35;8.10;;;;;;;12.37;100.00;99646.88;5282172;28;20062;-71
2023/04/01 09:39:25;;;;;;;7.90;7.10;;;;;;;12.28;100.00;99646.09;5283932;28;20028;-72
2023/04/01 09:42:18;;;;;;;7.68;6.72;;;;;;;12.16;100.00;99650.91;5278124;28;20028;-71
2023/04/01 09:45:00;;;;;;;6.90;6.20;;;;;;;12.16;100.00;99652.72;5280789;28;20031;-71
2023/04/01 09:48:04;;;;;;;6.97;6.35;;;;;;;12.34;100.00;99657.72;5284053;28;20120;-71
2023/04/01 09:50:47;;;;;;;;;;;;;;;12.83;100.00;99663.53;5281955;28;20370;-72
2023/04/01 09:54:05;;;;;;;7.25;6.53;;;;;;;12.64;100.00;99664.78;5282822;28;19959;-71
2023/04/01 09:57:06;;;;;;;8.70;6.78;;;;;;;12.60;100.00;99674.00;5284527;28;20165;-72
2023/04/01 10:00:00;;;;;;;8.20;7.40;;;;;;;12.66;100.00;99673.34;5281304;28;20519;-72
2023/04/01 10:03:09;;;;;;;11.45;6.85;;;;;;;12.64;100.00;99672.66;5279280;28;20046;-72
2023/04/01 10:06:09;;;;;;;8.60;6.65;;;;;;;12.55;100.00;99680.78;5283908;28;20447;-72
2023/04/01 10:09:26;;;;;;;7.68;6.68;;;;;;;12.59;100.00;99679.44;5283953;28;20111;-72
2023/04/01 10:12:07;;;;;;;9.45;7.75;;;;;;;12.37;100.00;99678.38;5282315;28;20031;-71
2023/04/01 10:14:53;;;;;;;8.07;7.28;;;;;;;12.39;100.00;99685.13;5284810;28;20491;-71
2023/04/01 10:17:47;;;;;;;8.45;7.55;;;;;;;12.48;100.00;99687.72;5279640;28;20028;-71
2023/04/01 10:20:47;;;;;;;9.77;7.72;;;;;;;12.46;100.00;99692.28;5279713;28;20047;-72
2023/04/01 10:23:24;;;;;;;10.73;8.52;;;;;;;12.30;100.00;99701.06;5280539;28;20038;-72
2023/04/01 10:26:23;;;;;;;9.25;8.30;;;;;;;12.47;100.00;99705.28;5282878;28;20105;-72
2023/04/01 10:29:21;;;;;;;10.20;8.43;;;;;;;12.47;100.00;99701.84;5284914;28;20823;-71
2023/04/01 10:32:29;;;;;;;9.90;8.95;;;;;;;12.41;100.00;99712.00;5281707;28;20058;-72
2023/04/01 10:35:22;;;;;;;11.13;9.85;;;;;;;12.24;100.00;99709.63;5280344;28;20040;-72
2023/04/01 10:37:59;;;;;;;11.23;9.75;;;;;;;12.13;100.00;99711.63;5277680;28;20060;-72
2023/04/01 10:40:37;;;;;;;10.40;9.30;;;;;;;12.18;100.00;99711.91;5285264;28;20035;-72
2023/04/01 10:43:41;;;;;;;11.15;10.05;;;;;;;12.50;100.00;99707.56;5279448;28;20422;-73
2023/04/01 10:46:30;;;;;;;12.20;10.90;;;;;;;12.24;100.00;99718.31;5284699;28;20030;-72
2023/04/01 10:49:18;;;;;;;10.93;9.48;;;;;;;12.29;100.00;99720.44;5284790;28;20051;-71
2023/04/01 10:51:52;;;;;;;12.65;11.30;;;;;;;12.30;100.00;99727.31;5283643;28;20153;-73
2023/04/01 10:54:47;;;;;;;11.60;10.38;;;;;;;12.47;100.00;99720.22;5284712;28;20040;-72
2023/04/01 10:58:03;;;;;;;12.52;10.35;;;;;;;12.47;100.00;99718.41;5287011;28;20036;-71
2023/04/01 11:01:02;;;;;;;11.75;10.52;;;;;;;12.43;100.00;99724.19;5284837;28;20032;-73
2023/04/01 11:03:42;;;;;;;12.40;9.88;;;;;;;12.23;100.00;99729.78;5285470;28;20130;-71
2023/04/01 11:06:31;;;;;;;12.60;11.25;;;;;;;12.39;100.00;99735.03;5283633;28;20222;-71
2023/04/01 11:09:21;;;;;;;11.77;10.50;;;;;;;12.10;100.00;99732.13;5279644;28;20036;-71
2023/04/01 11:12:20;;;;;;;11.80;10.60;;;;;;;12.41;100.00;99737.47;5279593;28;20043;-73
2023/04/01 11:15:15;;;;;;;11.77;10.52;;;;;;;12.55;100.00;99731.50;5283414;28;20040;-71
2023/04/01 11:18:11;;;;;;;12.88;10.93;;;;;;;12.66;100.00;99749.53;5281423;28;20031;-72
2023/04/01 11:21:11;;;;;;;12.00;10.65;;;;;;;12.92;100.00;99748.44;5283549;28;20055;-71
2023/04/01 11:23:54;;;;;;;12.90;11.15;;;;;;;12.40;100.00;99743.72;5281659;28;20034;-73
2023/04/01 11:26:32;;;;;;;12.48;10.77;;;;;;;12.38;100.00;99745.69;5281484;28;20039;-71
2023/04/01 11:29:19;;;;;;;12.43;11.27;;;;;;;12.34;100.00;99755.69;5285199;28;20449;-72
2023/04/01 11:32:02;;;;;;;10.05;9.10;;;;;;;12.28;100.00;99753.75;5278643;28;20028;-72
2023/04/01 11:35:01;;;;;;;10.43;9.32;;;;;;;12.48;100.00;99764.69;5286246;28;20036;-72
2023/04/01 11:37:50;;;;;;;9.32;8.52;;;;;;;12.51;100.00;99766.19;5285915;28;20032;-73
2023/04/01 11:40:52;;;;;;;10.82;9.73;;;;;;;12.58;100.00;99769.78;5280496;28;20093;-72
2023/04/01 11:43:37;;;;;;;11.27;10.13;;;;;;;12.49;100.00;99768.97;5279422;28;20322;-72
2023/04/01 11:46:15;;;;;;;10.90;9.90;;;;;;;12.33;100.00;99769.81;5279947;28;20028;-72
2023/04/01 11:49:25;;;;;;;11.73;9.57;;;;;;;12.51;100.00;99767.00;5286602;28;20040;-72
2023/04/01 11:52:07;;;;;;;11.57;10.48;;;;;;;12.53;100.00;99772.88;5283714;28;20130;-71
2023/04/01 11:54:55;;;;;;;10.35;8.98;;;;;;;12.34;100.00;99783.78;5284080;28;20028;-72
2023/04/01 11:57:35;;;;;;;10.60;8.88;;;;;;;12.34;100.00;99789.84;5282304;28;20032;-71
2023/04/01 12:00:26;;;;;;;9.38;8.13;;;;;;;12.64;100.00;99788.28;5281512;28;20100;-71
2023/04/01 12:03:31;;;;;;;9.43;8.45;;;;;;;12.43;100.00;99776.72;5290907;28;20019;-71
2023/04/01 12:06:14;;;;;;;7.70;7.00;;;;;;;12.38;100.00;99801.66;5288052;28;20032;-72
2023/04/01 12:09:30;;;;;;;7.40;6.70;;;;;;;12.60;100.00;99799.31;5276508;28;20107;-72
2023/04/01 12:12:20;;;;;;;9.65;7.35;;;;;;;12.69;100.00;99800.09;5271964;28;20034;-71
2023/04/01 12:15:13;;;;;;;8.32;7.13;;;;;;;12.48;100.00;99795.41;5283929;28;20366;-72
2023/04/01 12:17:45;;;;;;;;;;;;;;;12.83;100.00;99815.97;5286176;28;20425;-71
2023/04/01 12:20:25;;;;;;;6.72;6.13;;;;;;;12.35;100.00;99809.03;5280890;28;20358;-71
2023/04/01 12:23:34;;;;;;;6.88;6.18;;;;;;;12.14;100.00;99801.69;5281425;28;20034;-72
2023/04/01 12:26:39;;;;;;;7.43;6.70;;;;;;;12.49;100.00;99813.63;5256015;28;20497;-72
2023/04/01 12:29:30;;;;;;;6.85;6.15;;;;;;;12.48;100.00;99813.81;5258784;28;20431;-71
2023/04/01 12:32:29;;;;;;;7.43;6.68;;;;;;;12.42;100.00;99820.53;5280205;28;20040;-72